createdAt,value
2022-10-06T00:04:18.389Z,102202.22
2022-10-06T00:09:09.081Z,102216.91
2022-10-06T00:13:58.936Z,102212.41
2022-10-06T00:18:52.456Z,102244.53
2022-10-06T00:23:43.085Z,102246.25
2022-10-06T00:28:35.106Z,102253.97
2022-10-06T00:33:26.009Z,102271.22
2022-10-06T00:38:20.998Z,102272.00
2022-10-06T00:43:41.282Z,102282.38
2022-10-06T00:48:33.898Z,102297.91
2022-10-06T00:53:27.941Z,102302.19
2022-10-06T00:58:19.728Z,102320.31
2022-10-06T01:03:15.211Z,102328.97
2022-10-06T01:08:05.823Z,102324.66
2022-10-06T01:12:59.197Z,102332.44
2022-10-06T01:17:55.156Z,102342.81
2022-10-06T01:22:50.739Z,102357.53
2022-10-06T01:27:44.179Z,102347.94
2022-10-06T01:32:38.405Z,102360.88
2022-10-06T01:37:29.127Z,102363.38
2022-10-06T01:42:26.506Z,102372.06
2022-10-06T01:47:16.968Z,102385.00
2022-10-06T01:52:07.824Z,102375.28
2022-10-06T01:56:58.900Z,102389.16
2022-10-06T02:01:53.324Z,102398.53
2022-10-06T02:06:44.473Z,102408.84
2022-10-06T02:11:35.496Z,102417.44
2022-10-06T02:16:28.512Z,102424.22
2022-10-06T02:21:24.890Z,102438.06
2022-10-06T02:26:20.501Z,102444.00
2022-10-06T02:31:13.595Z,102449.94
2022-10-06T02:36:10.691Z,102446.28
2022-10-06T02:41:07.020Z,102448.75
2022-10-06T02:46:00.128Z,102463.47
2022-10-06T02:50:57.732Z,102464.22
2022-10-06T02:55:48.172Z,102480.63
2022-10-06T03:00:41.723Z,102479.75
2022-10-06T03:05:32.637Z,102490.13
2022-10-06T03:10:23.417Z,102498.00
2022-10-06T03:15:14.324Z,102511.03
2022-10-06T03:20:08.385Z,102506.69
2022-10-06T03:24:59.326Z,102521.41
2022-10-06T03:29:50.110Z,102530.88
2022-10-06T03:34:41.258Z,102532.50
2022-10-06T03:39:39.162Z,102542.41
2022-10-06T03:44:29.220Z,102549.19
2022-10-06T03:49:19.393Z,102558.56
2022-10-06T03:54:11.222Z,102567.06
2022-10-06T03:59:10.304Z,102571.28
2022-10-06T04:04:02.390Z,102589.31
2022-10-06T04:08:54.793Z,102587.50
2022-10-06T04:13:46.018Z,102592.53
2022-10-06T04:18:38.541Z,102598.41
2022-10-06T04:23:28.711Z,102608.63
2022-10-06T04:28:18.908Z,102611.91
2022-10-06T04:33:09.347Z,102614.31
2022-10-06T04:38:02.657Z,102623.69
2022-10-06T04:42:53.300Z,102628.66
2022-10-06T04:47:43.829Z,102637.09
2022-10-06T04:52:35.879Z,102630.84
2022-10-06T04:57:31.490Z,102643.69
2022-10-06T05:02:23.428Z,102649.56
2022-10-06T05:07:17.734Z,102662.31
2022-10-06T05:12:10.011Z,102670.78
2022-10-06T05:17:02.882Z,102681.03
2022-10-06T05:21:54.689Z,102685.22
2022-10-06T05:26:49.096Z,102691.09
2022-10-06T05:31:43.973Z,102693.56
2022-10-06T05:36:40.250Z,102711.53
2022-10-06T05:41:34.901Z,102709.53
2022-10-06T05:46:30.641Z,102721.50
2022-10-06T05:51:29.394Z,102736.94
2022-10-06T05:56:26.907Z,102739.41
2022-10-06T06:01:19.693Z,102740.19
2022-10-06T06:06:19.995Z,102738.38
2022-10-06T06:11:11.912Z,102759.06
2022-10-06T06:16:08.193Z,102753.81
2022-10-06T06:21:00.277Z,102758.16
2022-10-06T06:26:03.545Z,102760.75
2022-10-06T06:31:06.945Z,102765.88
2022-10-06T06:35:58.330Z,102778.84
2022-10-06T06:40:51.296Z,102771.00
2022-10-06T06:45:42.093Z,102785.78
2022-10-06T06:50:45.925Z,102800.63
2022-10-06T06:55:39.136Z,102807.72
2022-10-06T07:00:35.259Z,102828.66
2022-10-06T07:05:28.236Z,102838.31
2022-10-06T07:10:24.302Z,102841.13
2022-10-06T07:15:27.307Z,102844.78
2022-10-06T07:20:37.082Z,102857.09
2022-10-06T07:25:31.674Z,102857.44
2022-10-06T07:30:28.170Z,102874.06
2022-10-06T07:35:31.686Z,102879.47
2022-10-06T07:40:23.185Z,102877.97
2022-10-06T07:45:29.767Z,102892.09
2022-10-06T07:50:20.304Z,102904.50
2022-10-06T07:55:18.664Z,102912.38
2022-10-06T08:00:30.234Z,102916.03
2022-10-06T08:05:22.052Z,102921.44
2022-10-06T08:10:12.765Z,102936.25
2022-10-06T08:15:07.056Z,102932.06
2022-10-06T08:20:05.931Z,102938.41
2022-10-06T08:25:05.869Z,102941.22
2022-10-06T08:29:57.860Z,102947.59
2022-10-06T08:34:51.001Z,102938.31
2022-10-06T08:39:46.353Z,102961.00
2022-10-06T08:44:44.934Z,102972.50
2022-10-06T08:49:40.022Z,102971.06
2022-10-06T08:54:35.190Z,102978.34
2022-10-06T08:59:35.311Z,102979.84
2022-10-06T09:04:29.781Z,102990.81
2022-10-06T09:09:47.481Z,102997.53
2022-10-06T09:14:43.662Z,103010.28
2022-10-06T09:19:41.794Z,103011.59
2022-10-06T09:24:37.463Z,103010.22
2022-10-06T09:29:32.053Z,103022.78
2022-10-06T09:34:28.448Z,103018.91
2022-10-06T09:39:27.190Z,103023.94
2022-10-06T09:44:27.642Z,103020.41
2022-10-06T09:49:22.950Z,103024.72
2022-10-06T09:54:20.892Z,103033.13
2022-10-06T09:59:22.860Z,103031.69
2022-10-06T10:04:20.613Z,103033.34
2022-10-06T10:09:29.868Z,103037.03
2022-10-06T10:14:22.900Z,103033.00
2022-10-06T10:19:24.513Z,103042.03
2022-10-06T10:24:22.482Z,103043.00
2022-10-06T10:29:37.063Z,103046.53
2022-10-06T10:34:39.211Z,103062.25
2022-10-06T10:39:33.319Z,103046.09
2022-10-06T10:44:29.148Z,103056.72
2022-10-06T10:49:23.377Z,103046.34
2022-10-06T10:54:19.328Z,103046.41
2022-10-06T10:59:14.073Z,103060.41
2022-10-06T11:04:04.231Z,103055.06
2022-10-06T11:09:08.626Z,103061.00
2022-10-06T11:14:00.108Z,103066.22
2022-10-06T11:19:11.479Z,103066.22
2022-10-06T11:24:15.886Z,103063.41
2022-10-06T11:29:11.815Z,103057.09
2022-10-06T11:34:03.255Z,103061.50
2022-10-06T11:38:56.851Z,103070.31
2022-10-06T11:43:55.243Z,103072.72
2022-10-06T11:48:45.438Z,103062.03
2022-10-06T11:53:43.068Z,103066.31
2022-10-06T11:58:54.787Z,103060.59
2022-10-06T12:03:51.947Z,103053.53
2022-10-06T12:08:42.668Z,103069.91
2022-10-06T12:14:26.637Z,103057.69
2022-10-06T12:18:57.197Z,103049.22
2022-10-06T12:23:57.982Z,103054.63
2022-10-06T12:28:54.331Z,103032.25
2022-10-06T12:33:45.922Z,103044.78
2022-10-06T12:39:05.365Z,103050.13
2022-10-06T12:44:01.044Z,103052.81
2022-10-06T12:48:56.861Z,103056.38
2022-10-06T12:53:58.437Z,103045.16
2022-10-06T12:58:48.898Z,103038.22
2022-10-06T13:03:39.780Z,103045.06
2022-10-06T13:08:32.307Z,103033.78
2022-10-06T13:13:27.912Z,103033.72
2022-10-06T13:18:19.857Z,103037.06
2022-10-06T13:23:23.751Z,103042.16
2022-10-06T13:28:28.368Z,103034.34
2022-10-06T13:33:18.564Z,103042.34
2022-10-06T13:38:11.687Z,103042.34
2022-10-06T13:43:02.757Z,103038.88
2022-10-06T13:48:05.061Z,103035.38
2022-10-06T13:52:56.127Z,103032.03
2022-10-06T13:57:49.568Z,103033.91
2022-10-06T14:02:39.824Z,103027.81
2022-10-06T14:07:32.654Z,103030.44
2022-10-06T14:12:23.470Z,103040.94
2022-10-06T14:17:19.810Z,103036.56
2022-10-06T14:22:30.227Z,103038.38
2022-10-06T14:27:24.943Z,103036.66
2022-10-06T14:32:17.844Z,103022.53
2022-10-06T14:37:15.483Z,103025.94
2022-10-06T14:42:06.169Z,103037.22
2022-10-06T14:46:58.812Z,103030.97
2022-10-06T14:51:56.127Z,103023.03
2022-10-06T14:56:48.276Z,103040.25
2022-10-06T15:01:40.702Z,103033.25
2022-10-06T15:06:45.823Z,103016.63
2022-10-06T15:11:35.906Z,103023.47
2022-10-06T15:16:26.543Z,103006.97
2022-10-06T15:21:16.538Z,103014.69
2022-10-06T15:26:21.964Z,103012.91
2022-10-06T15:31:12.490Z,102995.44
2022-10-06T15:36:18.161Z,102991.00
2022-10-06T15:41:11.081Z,102993.53
2022-10-06T15:46:03.998Z,102989.13
2022-10-06T15:50:54.123Z,102985.50
2022-10-06T15:55:48.555Z,102978.50
2022-10-06T16:00:44.434Z,102982.78
2022-10-06T16:05:48.845Z,102983.56
2022-10-06T16:10:39.018Z,102973.84
2022-10-06T16:15:32.122Z,102976.41
2022-10-06T16:20:24.990Z,102973.66
2022-10-06T16:25:14.823Z,102969.19
2022-10-06T16:30:05.451Z,102965.69
2022-10-06T16:34:56.064Z,102964.66
2022-10-06T16:39:51.405Z,102964.63
2022-10-06T16:44:42.079Z,102974.97
2022-10-06T16:49:34.093Z,102964.38
2022-10-06T16:54:23.844Z,102966.00
2022-10-06T16:59:27.011Z,102963.22
2022-10-06T17:04:19.396Z,102964.78
2022-10-06T17:09:11.944Z,102964.66
2022-10-06T17:14:01.367Z,102964.53
2022-10-06T17:18:54.382Z,102965.25
2022-10-06T17:23:46.594Z,102968.53
2022-10-06T17:28:39.725Z,102967.47
2022-10-06T17:33:34.663Z,102958.50
2022-10-06T17:38:28.090Z,102961.75
2022-10-06T17:43:18.232Z,102964.19
2022-10-06T17:48:10.994Z,102970.00
2022-10-06T17:53:01.984Z,102969.63
2022-10-06T17:58:01.471Z,102961.53
2022-10-06T18:02:51.983Z,102967.41
2022-10-06T18:07:43.410Z,102970.75
2022-10-06T18:12:39.170Z,102968.84
2022-10-06T18:17:32.418Z,102968.63
2022-10-06T18:22:22.366Z,102961.47
2022-10-06T18:27:13.733Z,102961.31
2022-10-06T18:32:40.488Z,102956.78
2022-10-06T18:37:20.548Z,102963.66
2022-10-06T18:42:11.873Z,102940.88
2022-10-06T18:47:14.284Z,102945.91
2022-10-06T18:52:05.398Z,102944.00
2022-10-06T18:56:58.546Z,102948.28
2022-10-06T19:01:49.728Z,102941.19
2022-10-06T19:06:42.799Z,102942.75
2022-10-06T19:11:49.104Z,102935.59
2022-10-06T19:16:41.985Z,102928.47
2022-10-06T19:21:31.519Z,102940.34
2022-10-06T19:26:22.830Z,102933.25
2022-10-06T19:31:20.406Z,102932.25
2022-10-06T19:36:17.301Z,102941.59
2022-10-06T19:41:19.545Z,102942.25
2022-10-06T19:46:09.661Z,102946.44
2022-10-06T19:51:00.157Z,102949.69
2022-10-06T19:55:52.984Z,102951.19
2022-10-06T20:00:44.861Z,102949.34
2022-10-06T20:05:38.546Z,102941.38
2022-10-06T20:10:28.670Z,102942.88
2022-10-06T20:15:21.487Z,102942.81
2022-10-06T20:20:11.816Z,102944.38
2022-10-06T20:25:02.640Z,102942.50
2022-10-06T20:29:53.520Z,102939.88
2022-10-06T20:34:46.296Z,102941.59
2022-10-06T20:39:49.228Z,102934.53
2022-10-06T20:44:39.368Z,102930.88
2022-10-06T20:49:32.634Z,102936.69
2022-10-06T20:54:26.785Z,102941.66
2022-10-06T20:59:16.996Z,102927.78
2022-10-06T21:04:07.570Z,102928.56
2022-10-06T21:09:01.506Z,102928.38
2022-10-06T21:13:55.054Z,102925.69
2022-10-06T21:18:45.946Z,102929.84
2022-10-06T21:23:39.763Z,102919.38
2022-10-06T21:28:29.919Z,102920.13
2022-10-06T21:33:23.718Z,102916.56
2022-10-06T21:38:14.448Z,102922.59
2022-10-06T21:43:04.264Z,102913.03
2022-10-06T21:47:55.213Z,102900.91
2022-10-06T21:52:47.907Z,102905.19
2022-10-06T21:57:37.993Z,102898.13
2022-10-06T22:02:27.929Z,102884.22
2022-10-06T22:07:18.288Z,102874.53
2022-10-06T22:12:11.017Z,102867.56
2022-10-06T22:17:04.508Z,102869.09
2022-10-06T22:21:54.895Z,102863.00
2022-10-06T22:26:45.610Z,102858.59
2022-10-06T22:31:40.202Z,102858.47
2022-10-06T22:36:31.183Z,102856.59
2022-10-06T22:41:21.676Z,102844.44
2022-10-06T22:46:13.760Z,102841.84
2022-10-06T22:51:06.602Z,102829.66
2022-10-06T22:55:57.096Z,102832.22
2022-10-06T23:00:48.133Z,102832.94
2022-10-06T23:05:38.311Z,102832.00
2022-10-06T23:10:34.384Z,102821.50
2022-10-06T23:15:25.510Z,102827.34
2022-10-06T23:20:15.559Z,102815.94
2022-10-06T23:25:05.315Z,102811.53
2022-10-06T23:29:57.913Z,102797.53
2022-10-06T23:34:48.028Z,102803.38
2022-10-06T23:39:38.360Z,102792.88
2022-10-06T23:44:28.197Z,102789.38
2022-10-06T23:49:20.939Z,102778.00
2022-10-06T23:54:11.523Z,102779.69
2022-10-06T23:59:01.622Z,102771.00
